sensor_id;sensor_type;location;lat;lon;timestamp;P1;durP1;ratioP1;P2;durP2;ratioP2
6101;SDS011;3081;50.584;7.032;2022-11-15T00:02:09;10.10;;;5.60;;
6101;SDS011;3081;50.584;7.032;2022-11-15T00:04:36;10.00;;;6.23;;
6101;SDS011;3081;50.584;7.032;2022-11-15T00:07:05;10.93;;;6.27;;
6101;SDS011;3081;50.584;7.032;2022-11-15T00:09:31;10.73;;;4.87;;
6101;SDS011;3081;50.584;7.032;2022-11-15T00:11:58;11.10;;;5.90;;
6101;SDS011;3081;50.584;7.032;2022-11-15T00:14:25;8.27;;;5.30;;
6101;SDS011;3081;50.584;7.032;2022-11-15T00:16:52;9.67;;;5.37;;
6101;SDS011;3081;50.584;7.032;2022-11-15T00:19:19;11.73;;;5.77;;
6101;SDS011;3081;50.584;7.032;2022-11-15T00:21:46;10.00;;;5.70;;
6101;SDS011;3081;50.584;7.032;2022-11-15T00:24:14;10.40;;;6.37;;
6101;SDS011;3081;50.584;7.032;2022-11-15T00:26:41;10.77;;;6.47;;
6101;SDS011;3081;50.584;7.032;2022-11-15T00:29:08;16.70;;;7.10;;
6101;SDS011;3081;50.584;7.032;2022-11-15T00:31:35;10.50;;;6.63;;
6101;SDS011;3081;50.584;7.032;2022-11-15T00:34:02;10.70;;;6.13;;
6101;SDS011;3081;50.584;7.032;2022-11-15T00:36:29;12.10;;;6.87;;
6101;SDS011;3081;50.584;7.032;2022-11-15T00:38:59;11.20;;;6.80;;
6101;SDS011;3081;50.584;7.032;2022-11-15T00:41:28;11.83;;;7.30;;
6101;SDS011;3081;50.584;7.032;2022-11-15T00:43:55;9.90;;;6.70;;
6101;SDS011;3081;50.584;7.032;2022-11-15T00:46:21;10.03;;;6.30;;
6101;SDS011;3081;50.584;7.032;2022-11-15T00:48:48;8.70;;;5.10;;
6101;SDS011;3081;50.584;7.032;2022-11-15T00:51:15;9.93;;;5.37;;
6101;SDS011;3081;50.584;7.032;2022-11-15T00:53:42;9.57;;;5.30;;
6101;SDS011;3081;50.584;7.032;2022-11-15T00:56:09;9.43;;;5.47;;
6101;SDS011;3081;50.584;7.032;2022-11-15T00:58:37;8.00;;;5.13;;
6101;SDS011;3081;50.584;7.032;2022-11-15T01:01:05;9.13;;;5.03;;
6101;SDS011;3081;50.584;7.032;2022-11-15T01:03:33;8.93;;;4.77;;
6101;SDS011;3081;50.584;7.032;2022-11-15T01:06:00;7.60;;;5.00;;
6101;SDS011;3081;50.584;7.032;2022-11-15T01:08:27;9.63;;;4.77;;
6101;SDS011;3081;50.584;7.032;2022-11-15T01:10:54;9.73;;;4.63;;
6101;SDS011;3081;50.584;7.032;2022-11-15T01:13:21;11.77;;;5.47;;
6101;SDS011;3081;50.584;7.032;2022-11-15T01:15:49;8.63;;;4.90;;
6101;SDS011;3081;50.584;7.032;2022-11-15T01:18:16;8.27;;;4.70;;
6101;SDS011;3081;50.584;7.032;2022-11-15T01:20:43;6.90;;;4.00;;
6101;SDS011;3081;50.584;7.032;2022-11-15T01:23:10;10.60;;;4.63;;
6101;SDS011;3081;50.584;7.032;2022-11-15T01:25:37;15.73;;;7.73;;
6101;SDS011;3081;50.584;7.032;2022-11-15T01:28:03;7.60;;;4.20;;
6101;SDS011;3081;50.584;7.032;2022-11-15T01:30:30;9.80;;;4.40;;
6101;SDS011;3081;50.584;7.032;2022-11-15T01:32:59;7.97;;;3.40;;
6101;SDS011;3081;50.584;7.032;2022-11-15T01:35:26;7.60;;;3.60;;
6101;SDS011;3081;50.584;7.032;2022-11-15T01:37:53;11.20;;;3.73;;
6101;SDS011;3081;50.584;7.032;2022-11-15T01:40:19;7.73;;;3.63;;
6101;SDS011;3081;50.584;7.032;2022-11-15T01:42:46;10.23;;;4.13;;
6101;SDS011;3081;50.584;7.032;2022-11-15T01:45:14;6.67;;;3.93;;
6101;SDS011;3081;50.584;7.032;2022-11-15T01:47:42;6.77;;;3.80;;
6101;SDS011;3081;50.584;7.032;2022-11-15T01:50:14;6.70;;;3.47;;
6101;SDS011;3081;50.584;7.032;2022-11-15T01:52:43;6.87;;;3.20;;
6101;SDS011;3081;50.584;7.032;2022-11-15T01:55:11;7.20;;;3.70;;
6101;SDS011;3081;50.584;7.032;2022-11-15T01:57:42;8.93;;;4.20;;
6101;SDS011;3081;50.584;7.032;2022-11-15T02:00:13;6.60;;;3.37;;
6101;SDS011;3081;50.584;7.032;2022-11-15T02:02:40;6.30;;;3.07;;
6101;SDS011;3081;50.584;7.032;2022-11-15T02:05:07;4.57;;;1.83;;
6101;SDS011;3081;50.584;7.032;2022-11-15T02:07:36;5.13;;;2.53;;
6101;SDS011;3081;50.584;7.032;2022-11-15T02:10:04;6.43;;;3.27;;
6101;SDS011;3081;50.584;7.032;2022-11-15T02:12:34;8.37;;;3.30;;
6101;SDS011;3081;50.584;7.032;2022-11-15T02:15:02;6.13;;;2.53;;
6101;SDS011;3081;50.584;7.032;2022-11-15T02:17:35;7.13;;;3.03;;
6101;SDS011;3081;50.584;7.032;2022-11-15T02:26:31;7.90;;;2.90;;
6101;SDS011;3081;50.584;7.032;2022-11-15T02:29:35;6.37;;;3.37;;
6101;SDS011;3081;50.584;7.032;2022-11-15T02:32:22;10.00;;;4.67;;
6101;SDS011;3081;50.584;7.032;2022-11-15T02:34:54;7.23;;;3.23;;
6101;SDS011;3081;50.584;7.032;2022-11-15T02:37:28;5.80;;;2.50;;
6101;SDS011;3081;50.584;7.032;2022-11-15T02:40:04;5.20;;;2.43;;
6101;SDS011;3081;50.584;7.032;2022-11-15T02:42:39;5.60;;;2.40;;
6101;SDS011;3081;50.584;7.032;2022-11-15T02:45:35;6.30;;;2.50;;
6101;SDS011;3081;50.584;7.032;2022-11-15T02:48:09;6.50;;;3.20;;
6101;SDS011;3081;50.584;7.032;2022-11-15T02:50:38;5.87;;;2.20;;
6101;SDS011;3081;50.584;7.032;2022-11-15T02:53:05;5.20;;;2.60;;
6101;SDS011;3081;50.584;7.032;2022-11-15T02:55:34;4.63;;;2.13;;
6101;SDS011;3081;50.584;7.032;2022-11-15T02:58:07;5.13;;;2.40;;
6101;SDS011;3081;50.584;7.032;2022-11-15T03:00:55;9.07;;;2.60;;
6101;SDS011;3081;50.584;7.032;2022-11-15T03:03:33;5.53;;;2.40;;
6101;SDS011;3081;50.584;7.032;2022-11-15T03:06:15;5.27;;;2.30;;
6101;SDS011;3081;50.584;7.032;2022-11-15T03:08:53;5.47;;;2.73;;
6101;SDS011;3081;50.584;7.032;2022-11-15T03:11:27;5.73;;;2.70;;
6101;SDS011;3081;50.584;7.032;2022-11-15T03:13:58;6.43;;;2.53;;
6101;SDS011;3081;50.584;7.032;2022-11-15T03:16:29;4.27;;;2.00;;
6101;SDS011;3081;50.584;7.032;2022-11-15T03:19:03;5.70;;;2.80;;
6101;SDS011;3081;50.584;7.032;2022-11-15T03:21:38;5.60;;;2.50;;
6101;SDS011;3081;50.584;7.032;2022-11-15T03:24:07;6.17;;;3.17;;
6101;SDS011;3081;50.584;7.032;2022-11-15T03:26:35;5.13;;;2.60;;
6101;SDS011;3081;50.584;7.032;2022-11-15T03:29:06;6.37;;;3.10;;
6101;SDS011;3081;50.584;7.032;2022-11-15T03:31:39;6.93;;;3.53;;
6101;SDS011;3081;50.584;7.032;2022-11-15T03:34:16;7.60;;;3.27;;
6101;SDS011;3081;50.584;7.032;2022-11-15T03:36:48;5.43;;;2.90;;
6101;SDS011;3081;50.584;7.032;2022-11-15T03:39:17;4.97;;;2.90;;
6101;SDS011;3081;50.584;7.032;2022-11-15T03:41:47;5.87;;;2.90;;
6101;SDS011;3081;50.584;7.032;2022-11-15T03:44:20;7.00;;;3.03;;
6101;SDS011;3081;50.584;7.032;2022-11-15T03:46:57;5.50;;;2.70;;
6101;SDS011;3081;50.584;7.032;2022-11-15T03:49:31;6.10;;;3.10;;
6101;SDS011;3081;50.584;7.032;2022-11-15T03:52:00;6.10;;;2.47;;
6101;SDS011;3081;50.584;7.032;2022-11-15T03:54:28;9.67;;;6.00;;
6101;SDS011;3081;50.584;7.032;2022-11-15T03:56:55;5.40;;;2.60;;
6101;SDS011;3081;50.584;7.032;2022-11-15T03:59:22;5.40;;;2.70;;
6101;SDS011;3081;50.584;7.032;2022-11-15T04:01:49;5.60;;;2.90;;
6101;SDS011;3081;50.584;7.032;2022-11-15T04:04:16;5.00;;;2.43;;
6101;SDS011;3081;50.584;7.032;2022-11-15T04:06:44;4.97;;;2.60;;
6101;SDS011;3081;50.584;7.032;2022-11-15T04:09:11;5.03;;;2.50;;
6101;SDS011;3081;50.584;7.032;2022-11-15T04:11:38;5.30;;;2.83;;
6101;SDS011;3081;50.584;7.032;2022-11-15T04:14:05;7.97;;;4.20;;
6101;SDS011;3081;50.584;7.032;2022-11-15T04:16:32;4.87;;;2.60;;
6101;SDS011;3081;50.584;7.032;2022-11-15T04:18:58;5.80;;;2.80;;
6101;SDS011;3081;50.584;7.032;2022-11-15T04:21:44;4.43;;;2.20;;
6101;SDS011;3081;50.584;7.032;2022-11-15T04:24:29;6.03;;;3.17;;
6101;SDS011;3081;50.584;7.032;2022-11-15T04:26:56;3.60;;;1.70;;
6101;SDS011;3081;50.584;7.032;2022-11-15T04:29:23;3.60;;;1.47;;
6101;SDS011;3081;50.584;7.032;2022-11-15T04:32:01;3.30;;;1.50;;
6101;SDS011;3081;50.584;7.032;2022-11-15T04:34:29;4.07;;;1.80;;
6101;SDS011;3081;50.584;7.032;2022-11-15T04:36:57;3.70;;;1.67;;
6101;SDS011;3081;50.584;7.032;2022-11-15T04:39:41;3.77;;;1.60;;
6101;SDS011;3081;50.584;7.032;2022-11-15T04:42:09;4.17;;;1.70;;
6101;SDS011;3081;50.584;7.032;2022-11-15T04:44:36;4.80;;;2.30;;
6101;SDS011;3081;50.584;7.032;2022-11-15T04:47:04;3.50;;;1.40;;
6101;SDS011;3081;50.584;7.032;2022-11-15T04:49:31;3.60;;;1.40;;
6101;SDS011;3081;50.584;7.032;2022-11-15T04:51:59;3.83;;;1.40;;
6101;SDS011;3081;50.584;7.032;2022-11-15T04:54:26;4.60;;;1.90;;
6101;SDS011;3081;50.584;7.032;2022-11-15T04:56:53;8.10;;;1.60;;
6101;SDS011;3081;50.584;7.032;2022-11-15T04:59:20;3.93;;;1.43;;
6101;SDS011;3081;50.584;7.032;2022-11-15T05:01:47;2.90;;;1.10;;
6101;SDS011;3081;50.584;7.032;2022-11-15T05:04:13;3.10;;;1.20;;
6101;SDS011;3081;50.584;7.032;2022-11-15T05:06:46;3.27;;;1.13;;
6101;SDS011;3081;50.584;7.032;2022-11-15T05:09:15;3.40;;;1.30;;
6101;SDS011;3081;50.584;7.032;2022-11-15T05:11:43;3.50;;;1.20;;
6101;SDS011;3081;50.584;7.032;2022-11-15T05:14:10;3.43;;;1.40;;
6101;SDS011;3081;50.584;7.032;2022-11-15T05:16:37;3.70;;;1.30;;
6101;SDS011;3081;50.584;7.032;2022-11-15T05:19:05;3.20;;;1.03;;
6101;SDS011;3081;50.584;7.032;2022-11-15T05:21:32;3.60;;;1.23;;
6101;SDS011;3081;50.584;7.032;2022-11-15T05:24:00;4.87;;;1.40;;
6101;SDS011;3081;50.584;7.032;2022-11-15T05:26:28;3.23;;;1.20;;
6101;SDS011;3081;50.584;7.032;2022-11-15T05:28:55;4.10;;;1.33;;
6101;SDS011;3081;50.584;7.032;2022-11-15T05:31:23;5.77;;;1.10;;
6101;SDS011;3081;50.584;7.032;2022-11-15T05:33:51;3.40;;;1.27;;
6101;SDS011;3081;50.584;7.032;2022-11-15T05:36:21;3.23;;;1.13;;
6101;SDS011;3081;50.584;7.032;2022-11-15T05:38:55;3.20;;;1.10;;
6101;SDS011;3081;50.584;7.032;2022-11-15T05:41:22;4.27;;;1.67;;
6101;SDS011;3081;50.584;7.032;2022-11-15T05:43:57;4.47;;;1.20;;
6101;SDS011;3081;50.584;7.032;2022-11-15T05:46:24;3.77;;;1.10;;
6101;SDS011;3081;50.584;7.032;2022-11-15T05:48:51;3.30;;;1.10;;
6101;SDS011;3081;50.584;7.032;2022-11-15T05:51:19;4.80;;;1.50;;
6101;SDS011;3081;50.584;7.032;2022-11-15T05:53:48;3.30;;;0.90;;
6101;SDS011;3081;50.584;7.032;2022-11-15T05:56:17;4.47;;;1.40;;
6101;SDS011;3081;50.584;7.032;2022-11-15T05:58:44;5.00;;;1.87;;
6101;SDS011;3081;50.584;7.032;2022-11-15T06:01:13;4.20;;;1.80;;
6101;SDS011;3081;50.584;7.032;2022-11-15T06:03:40;3.70;;;1.50;;
6101;SDS011;3081;50.584;7.032;2022-11-15T06:06:07;4.20;;;1.30;;
6101;SDS011;3081;50.584;7.032;2022-11-15T06:08:34;3.80;;;1.23;;
6101;SDS011;3081;50.584;7.032;2022-11-15T06:11:04;3.80;;;1.50;;
6101;SDS011;3081;50.584;7.032;2022-11-15T06:13:31;3.30;;;1.20;;
6101;SDS011;3081;50.584;7.032;2022-11-15T06:15:59;4.73;;;1.33;;
6101;SDS011;3081;50.584;7.032;2022-11-15T06:18:27;3.30;;;1.20;;
6101;SDS011;3081;50.584;7.032;2022-11-15T06:20:57;4.07;;;1.57;;
6101;SDS011;3081;50.584;7.032;2022-11-15T06:23:24;3.63;;;1.40;;
6101;SDS011;3081;50.584;7.032;2022-11-15T06:25:51;3.90;;;1.60;;
6101;SDS011;3081;50.584;7.032;2022-11-15T06:28:18;4.43;;;1.90;;
6101;SDS011;3081;50.584;7.032;2022-11-15T06:30:45;4.97;;;2.00;;
6101;SDS011;3081;50.584;7.032;2022-11-15T06:33:12;4.50;;;1.60;;
6101;SDS011;3081;50.584;7.032;2022-11-15T06:35:40;4.10;;;1.50;;
6101;SDS011;3081;50.584;7.032;2022-11-15T06:38:08;4.27;;;1.47;;
6101;SDS011;3081;50.584;7.032;2022-11-15T06:40:36;5.47;;;1.67;;
6101;SDS011;3081;50.584;7.032;2022-11-15T06:43:04;4.37;;;1.87;;
6101;SDS011;3081;50.584;7.032;2022-11-15T06:45:32;4.50;;;1.90;;
6101;SDS011;3081;50.584;7.032;2022-11-15T06:47:59;3.53;;;1.47;;
6101;SDS011;3081;50.584;7.032;2022-11-15T06:50:26;4.47;;;1.80;;
6101;SDS011;3081;50.584;7.032;2022-11-15T06:52:54;4.40;;;1.47;;
6101;SDS011;3081;50.584;7.032;2022-11-15T06:55:26;3.90;;;1.33;;
6101;SDS011;3081;50.584;7.032;2022-11-15T06:57:53;3.50;;;1.20;;
6101;SDS011;3081;50.584;7.032;2022-11-15T07:00:20;6.50;;;1.47;;
6101;SDS011;3081;50.584;7.032;2022-11-15T07:02:48;3.90;;;1.50;;
6101;SDS011;3081;50.584;7.032;2022-11-15T07:05:15;3.93;;;1.40;;
6101;SDS011;3081;50.584;7.032;2022-11-15T07:07:42;3.00;;;1.00;;
6101;SDS011;3081;50.584;7.032;2022-11-15T07:10:10;3.50;;;1.50;;
6101;SDS011;3081;50.584;7.032;2022-11-15T07:12:37;4.30;;;1.80;;
6101;SDS011;3081;50.584;7.032;2022-11-15T07:15:05;5.23;;;1.27;;
6101;SDS011;3081;50.584;7.032;2022-11-15T07:17:32;8.23;;;1.50;;
6101;SDS011;3081;50.584;7.032;2022-11-15T07:19:59;4.90;;;1.60;;
6101;SDS011;3081;50.584;7.032;2022-11-15T07:22:26;4.30;;;1.23;;
6101;SDS011;3081;50.584;7.032;2022-11-15T07:24:53;3.30;;;1.27;;
6101;SDS011;3081;50.584;7.032;2022-11-15T07:27:21;3.87;;;1.40;;
6101;SDS011;3081;50.584;7.032;2022-11-15T07:29:48;4.17;;;1.33;;
6101;SDS011;3081;50.584;7.032;2022-11-15T07:32:15;3.87;;;1.70;;
6101;SDS011;3081;50.584;7.032;2022-11-15T07:34:42;3.40;;;1.40;;
6101;SDS011;3081;50.584;7.032;2022-11-15T07:37:11;4.27;;;1.20;;
6101;SDS011;3081;50.584;7.032;2022-11-15T07:39:38;4.10;;;1.37;;
6101;SDS011;3081;50.584;7.032;2022-11-15T07:42:05;4.00;;;1.47;;
6101;SDS011;3081;50.584;7.032;2022-11-15T07:44:51;4.03;;;1.10;;
6101;SDS011;3081;50.584;7.032;2022-11-15T07:47:18;3.30;;;0.87;;
6101;SDS011;3081;50.584;7.032;2022-11-15T07:49:45;3.90;;;1.03;;
6101;SDS011;3081;50.584;7.032;2022-11-15T07:52:12;4.03;;;0.97;;
6101;SDS011;3081;50.584;7.032;2022-11-15T07:54:39;7.90;;;1.10;;
6101;SDS011;3081;50.584;7.032;2022-11-15T07:57:06;4.13;;;1.00;;
6101;SDS011;3081;50.584;7.032;2022-11-15T07:59:34;4.70;;;1.13;;
6101;SDS011;3081;50.584;7.032;2022-11-15T08:02:02;3.80;;;0.80;;
6101;SDS011;3081;50.584;7.032;2022-11-15T08:04:29;16.30;;;1.30;;
6101;SDS011;3081;50.584;7.032;2022-11-15T08:06:56;3.80;;;0.60;;
6101;SDS011;3081;50.584;7.032;2022-11-15T08:09:23;4.57;;;0.97;;
6101;SDS011;3081;50.584;7.032;2022-11-15T08:11:50;5.90;;;0.83;;
6101;SDS011;3081;50.584;7.032;2022-11-15T08:14:17;4.47;;;0.80;;
6101;SDS011;3081;50.584;7.032;2022-11-15T08:16:46;6.00;;;1.00;;
6101;SDS011;3081;50.584;7.032;2022-11-15T08:19:14;4.80;;;0.87;;
6101;SDS011;3081;50.584;7.032;2022-11-15T08:21:41;4.83;;;1.00;;
6101;SDS011;3081;50.584;7.032;2022-11-15T08:24:08;4.80;;;0.90;;
6101;SDS011;3081;50.584;7.032;2022-11-15T08:26:36;5.47;;;0.90;;
6101;SDS011;3081;50.584;7.032;2022-11-15T08:29:04;5.00;;;0.83;;
6101;SDS011;3081;50.584;7.032;2022-11-15T08:31:32;5.17;;;0.90;;
6101;SDS011;3081;50.584;7.032;2022-11-15T08:33:59;6.27;;;1.20;;
6101;SDS011;3081;50.584;7.032;2022-11-15T08:36:28;5.93;;;0.90;;
6101;SDS011;3081;50.584;7.032;2022-11-15T08:38:55;5.23;;;0.70;;
6101;SDS011;3081;50.584;7.032;2022-11-15T08:41:23;6.57;;;1.07;;
6101;SDS011;3081;50.584;7.032;2022-11-15T08:43:52;6.00;;;0.87;;
6101;SDS011;3081;50.584;7.032;2022-11-15T08:46:19;7.93;;;1.00;;
6101;SDS011;3081;50.584;7.032;2022-11-15T08:48:46;9.17;;;0.90;;
6101;SDS011;3081;50.584;7.032;2022-11-15T08:51:13;6.90;;;1.13;;
6101;SDS011;3081;50.584;7.032;2022-11-15T08:53:41;6.80;;;0.80;;
6101;SDS011;3081;50.584;7.032;2022-11-15T08:56:09;9.27;;;0.80;;
6101;SDS011;3081;50.584;7.032;2022-11-15T08:58:37;6.90;;;0.90;;
6101;SDS011;3081;50.584;7.032;2022-11-15T09:01:04;7.50;;;1.10;;
6101;SDS011;3081;50.584;7.032;2022-11-15T09:03:31;7.77;;;0.90;;
6101;SDS011;3081;50.584;7.032;2022-11-15T09:05:59;7.50;;;0.90;;
6101;SDS011;3081;50.584;7.032;2022-11-15T09:08:29;6.97;;;0.80;;
6101;SDS011;3081;50.584;7.032;2022-11-15T09:10:58;6.77;;;0.90;;
6101;SDS011;3081;50.584;7.032;2022-11-15T09:13:28;6.90;;;0.83;;
6101;SDS011;3081;50.584;7.032;2022-11-15T09:15:57;9.13;;;1.27;;
6101;SDS011;3081;50.584;7.032;2022-11-15T09:18:24;7.97;;;1.10;;
6101;SDS011;3081;50.584;7.032;2022-11-15T09:20:54;7.57;;;1.00;;
6101;SDS011;3081;50.584;7.032;2022-11-15T09:23:22;7.13;;;1.00;;
6101;SDS011;3081;50.584;7.032;2022-11-15T09:25:50;8.30;;;1.00;;
6101;SDS011;3081;50.584;7.032;2022-11-15T09:28:18;9.03;;;1.13;;
6101;SDS011;3081;50.584;7.032;2022-11-15T09:30:45;12.13;;;1.20;;
6101;SDS011;3081;50.584;7.032;2022-11-15T09:33:12;6.90;;;0.90;;
6101;SDS011;3081;50.584;7.032;2022-11-15T09:35:39;6.90;;;0.90;;
6101;SDS011;3081;50.584;7.032;2022-11-15T09:38:07;7.27;;;0.90;;
6101;SDS011;3081;50.584;7.032;2022-11-15T09:40:35;9.37;;;0.90;;
6101;SDS011;3081;50.584;7.032;2022-11-15T09:46:01;8.80;;;0.80;;
6101;SDS011;3081;50.584;7.032;2022-11-15T09:48:38;7.63;;;0.73;;
6101;SDS011;3081;50.584;7.032;2022-11-15T09:51:19;7.73;;;0.70;;
6101;SDS011;3081;50.584;7.032;2022-11-15T09:53:52;7.10;;;0.90;;
6101;SDS011;3081;50.584;7.032;2022-11-15T09:56:25;7.07;;;0.70;;
6101;SDS011;3081;50.584;7.032;2022-11-15T09:58:59;8.50;;;0.90;;
6101;SDS011;3081;50.584;7.032;2022-11-15T10:01:40;7.00;;;0.63;;
6101;SDS011;3081;50.584;7.032;2022-11-15T10:04:12;9.27;;;1.00;;
6101;SDS011;3081;50.584;7.032;2022-11-15T10:06:42;8.10;;;0.80;;
6101;SDS011;3081;50.584;7.032;2022-11-15T10:09:16;6.73;;;0.80;;
6101;SDS011;3081;50.584;7.032;2022-11-15T10:11:48;8.83;;;0.90;;
6101;SDS011;3081;50.584;7.032;2022-11-15T10:14:18;7.63;;;0.97;;
6101;SDS011;3081;50.584;7.032;2022-11-15T10:19:58;9.43;;;0.83;;
6101;SDS011;3081;50.584;7.032;2022-11-15T10:22:35;7.50;;;0.80;;
6101;SDS011;3081;50.584;7.032;2022-11-15T10:25:10;7.93;;;0.80;;
6101;SDS011;3081;50.584;7.032;2022-11-15T10:27:44;9.63;;;1.07;;
6101;SDS011;3081;50.584;7.032;2022-11-15T10:30:17;8.40;;;0.90;;
6101;SDS011;3081;50.584;7.032;2022-11-15T10:32:45;8.50;;;0.80;;
6101;SDS011;3081;50.584;7.032;2022-11-15T10:35:22;8.20;;;1.07;;
6101;SDS011;3081;50.584;7.032;2022-11-15T10:37:50;7.70;;;0.80;;
6101;SDS011;3081;50.584;7.032;2022-11-15T10:40:20;7.40;;;0.83;;
6101;SDS011;3081;50.584;7.032;2022-11-15T10:42:48;8.80;;;0.90;;
6101;SDS011;3081;50.584;7.032;2022-11-15T10:45:31;8.80;;;0.93;;
6101;SDS011;3081;50.584;7.032;2022-11-15T10:50:46;9.73;;;1.00;;
6101;SDS011;3081;50.584;7.032;2022-11-15T10:53:17;9.63;;;1.43;;
6101;SDS011;3081;50.584;7.032;2022-11-15T10:55:48;7.87;;;0.60;;
6101;SDS011;3081;50.584;7.032;2022-11-15T10:58:21;7.10;;;0.90;;
6101;SDS011;3081;50.584;7.032;2022-11-15T11:00:57;8.70;;;1.00;;
6101;SDS011;3081;50.584;7.032;2022-11-15T11:03:39;7.73;;;0.90;;
6101;SDS011;3081;50.584;7.032;2022-11-15T11:06:09;6.80;;;0.57;;
6101;SDS011;3081;50.584;7.032;2022-11-15T11:08:38;6.87;;;0.70;;
6101;SDS011;3081;50.584;7.032;2022-11-15T11:11:05;8.53;;;0.80;;
6101;SDS011;3081;50.584;7.032;2022-11-15T11:13:34;7.23;;;1.00;;
6101;SDS011;3081;50.584;7.032;2022-11-15T11:16:16;7.07;;;0.77;;
6101;SDS011;3081;50.584;7.032;2022-11-15T11:18:57;6.70;;;0.60;;
6101;SDS011;3081;50.584;7.032;2022-11-15T11:21:35;8.00;;;1.00;;
6101;SDS011;3081;50.584;7.032;2022-11-15T11:24:10;8.50;;;1.90;;
6101;SDS011;3081;50.584;7.032;2022-11-15T11:26:42;8.07;;;0.90;;
6101;SDS011;3081;50.584;7.032;2022-11-15T11:29:26;7.87;;;1.23;;
6101;SDS011;3081;50.584;7.032;2022-11-15T11:32:06;10.63;;;2.40;;
6101;SDS011;3081;50.584;7.032;2022-11-15T11:34:48;8.70;;;2.07;;
6101;SDS011;3081;50.584;7.032;2022-11-15T11:37:25;9.73;;;2.70;;
6101;SDS011;3081;50.584;7.032;2022-11-15T11:40:02;7.70;;;1.10;;
6101;SDS011;3081;50.584;7.032;2022-11-15T11:42:40;8.07;;;0.80;;
6101;SDS011;3081;50.584;7.032;2022-11-15T11:45:15;8.27;;;1.03;;
6101;SDS011;3081;50.584;7.032;2022-11-15T11:47:47;7.60;;;1.20;;
6101;SDS011;3081;50.584;7.032;2022-11-15T11:50:26;8.53;;;1.50;;
6101;SDS011;3081;50.584;7.032;2022-11-15T11:52:56;8.20;;;1.63;;
6101;SDS011;3081;50.584;7.032;2022-11-15T11:55:25;9.97;;;1.57;;
6101;SDS011;3081;50.584;7.032;2022-11-15T11:58:01;9.63;;;1.70;;
6101;SDS011;3081;50.584;7.032;2022-11-15T12:00:31;8.40;;;1.30;;
6101;SDS011;3081;50.584;7.032;2022-11-15T12:03:05;7.60;;;1.10;;
6101;SDS011;3081;50.584;7.032;2022-11-15T12:05:39;9.10;;;1.20;;
6101;SDS011;3081;50.584;7.032;2022-11-15T12:08:17;8.90;;;1.53;;
6101;SDS011;3081;50.584;7.032;2022-11-15T12:10:52;11.03;;;1.80;;
6101;SDS011;3081;50.584;7.032;2022-11-15T12:13:25;8.73;;;1.57;;
6101;SDS011;3081;50.584;7.032;2022-11-15T12:15:59;10.80;;;1.90;;
6101;SDS011;3081;50.584;7.032;2022-11-15T12:18:33;13.53;;;1.87;;
6101;SDS011;3081;50.584;7.032;2022-11-15T12:21:01;9.73;;;1.83;;
6101;SDS011;3081;50.584;7.032;2022-11-15T12:23:35;8.73;;;1.90;;
6101;SDS011;3081;50.584;7.032;2022-11-15T12:26:09;7.80;;;1.53;;
6101;SDS011;3081;50.584;7.032;2022-11-15T12:28:45;8.60;;;1.80;;
6101;SDS011;3081;50.584;7.032;2022-11-15T12:31:15;8.50;;;1.67;;
6101;SDS011;3081;50.584;7.032;2022-11-15T12:33:49;9.40;;;2.40;;
6101;SDS011;3081;50.584;7.032;2022-11-15T12:36:30;8.63;;;1.60;;
6101;SDS011;3081;50.584;7.032;2022-11-15T12:39:03;9.57;;;2.33;;
6101;SDS011;3081;50.584;7.032;2022-11-15T12:41:31;8.93;;;2.23;;
6101;SDS011;3081;50.584;7.032;2022-11-15T12:43:59;9.40;;;2.00;;
6101;SDS011;3081;50.584;7.032;2022-11-15T12:49:46;14.47;;;4.87;;
6101;SDS011;3081;50.584;7.032;2022-11-15T12:52:14;10.50;;;3.50;;
6101;SDS011;3081;50.584;7.032;2022-11-15T12:54:50;9.77;;;3.20;;
6101;SDS011;3081;50.584;7.032;2022-11-15T12:57:39;35.10;;;19.00;;
6101;SDS011;3081;50.584;7.032;2022-11-15T13:06:01;10.97;;;3.43;;
6101;SDS011;3081;50.584;7.032;2022-11-15T13:20:08;9.80;;;2.80;;
6101;SDS011;3081;50.584;7.032;2022-11-15T13:22:48;8.80;;;2.07;;
6101;SDS011;3081;50.584;7.032;2022-11-15T13:28:37;17.13;;;5.33;;
6101;SDS011;3081;50.584;7.032;2022-11-15T13:33:56;8.63;;;2.00;;
6101;SDS011;3081;50.584;7.032;2022-11-15T13:36:28;8.30;;;1.50;;
6101;SDS011;3081;50.584;7.032;2022-11-15T13:39:00;9.40;;;2.97;;
6101;SDS011;3081;50.584;7.032;2022-11-15T13:41:29;10.63;;;3.07;;
6101;SDS011;3081;50.584;7.032;2022-11-15T13:43:58;10.40;;;1.77;;
6101;SDS011;3081;50.584;7.032;2022-11-15T13:46:26;7.80;;;1.73;;
6101;SDS011;3081;50.584;7.032;2022-11-15T13:48:55;8.67;;;1.70;;
6101;SDS011;3081;50.584;7.032;2022-11-15T13:51:25;8.40;;;1.90;;
6101;SDS011;3081;50.584;7.032;2022-11-15T13:53:57;9.90;;;2.27;;
6101;SDS011;3081;50.584;7.032;2022-11-15T13:56:29;8.50;;;1.63;;
6101;SDS011;3081;50.584;7.032;2022-11-15T13:58:59;8.17;;;1.80;;
6101;SDS011;3081;50.584;7.032;2022-11-15T14:01:27;8.03;;;1.60;;
6101;SDS011;3081;50.584;7.032;2022-11-15T14:03:58;8.07;;;1.57;;
6101;SDS011;3081;50.584;7.032;2022-11-15T14:06:28;8.73;;;1.83;;
6101;SDS011;3081;50.584;7.032;2022-11-15T14:09:28;9.20;;;1.03;;
6101;SDS011;3081;50.584;7.032;2022-11-15T14:11:59;7.50;;;1.40;;
6101;SDS011;3081;50.584;7.032;2022-11-15T14:14:28;7.73;;;1.47;;
6101;SDS011;3081;50.584;7.032;2022-11-15T14:16:56;9.10;;;1.70;;
6101;SDS011;3081;50.584;7.032;2022-11-15T14:19:35;7.97;;;1.57;;
6101;SDS011;3081;50.584;7.032;2022-11-15T14:22:13;9.10;;;1.80;;
6101;SDS011;3081;50.584;7.032;2022-11-15T14:24:44;7.63;;;1.57;;
6101;SDS011;3081;50.584;7.032;2022-11-15T14:27:16;8.37;;;1.50;;
6101;SDS011;3081;50.584;7.032;2022-11-15T14:29:46;9.77;;;1.80;;
6101;SDS011;3081;50.584;7.032;2022-11-15T14:32:13;8.03;;;1.60;;
6101;SDS011;3081;50.584;7.032;2022-11-15T14:34:42;8.03;;;1.60;;
6101;SDS011;3081;50.584;7.032;2022-11-15T14:37:12;7.60;;;1.20;;
6101;SDS011;3081;50.584;7.032;2022-11-15T14:39:49;7.87;;;1.33;;
6101;SDS011;3081;50.584;7.032;2022-11-15T14:42:17;7.33;;;1.30;;
6101;SDS011;3081;50.584;7.032;2022-11-15T14:44:44;9.40;;;2.60;;
6101;SDS011;3081;50.584;7.032;2022-11-15T14:47:12;13.90;;;4.53;;
6101;SDS011;3081;50.584;7.032;2022-11-15T14:49:39;10.90;;;3.90;;
6101;SDS011;3081;50.584;7.032;2022-11-15T14:52:23;8.00;;;2.03;;
6101;SDS011;3081;50.584;7.032;2022-11-15T14:54:55;9.43;;;2.47;;
6101;SDS011;3081;50.584;7.032;2022-11-15T14:57:24;7.87;;;1.47;;
6101;SDS011;3081;50.584;7.032;2022-11-15T14:59:51;9.60;;;2.53;;
6101;SDS011;3081;50.584;7.032;2022-11-15T15:02:18;9.27;;;2.50;;
6101;SDS011;3081;50.584;7.032;2022-11-15T15:04:46;10.07;;;3.50;;
6101;SDS011;3081;50.584;7.032;2022-11-15T15:07:14;8.90;;;2.87;;
6101;SDS011;3081;50.584;7.032;2022-11-15T15:09:41;16.43;;;6.80;;
6101;SDS011;3081;50.584;7.032;2022-11-15T15:12:13;17.20;;;5.17;;
6101;SDS011;3081;50.584;7.032;2022-11-15T15:14:42;12.00;;;5.30;;
6101;SDS011;3081;50.584;7.032;2022-11-15T15:17:09;13.63;;;6.37;;
6101;SDS011;3081;50.584;7.032;2022-11-15T15:19:36;21.10;;;8.93;;
6101;SDS011;3081;50.584;7.032;2022-11-15T15:22:03;40.23;;;20.80;;
6101;SDS011;3081;50.584;7.032;2022-11-15T15:24:30;42.73;;;20.10;;
6101;SDS011;3081;50.584;7.032;2022-11-15T15:26:57;63.77;;;34.80;;
6101;SDS011;3081;50.584;7.032;2022-11-15T15:29:25;30.80;;;17.03;;
6101;SDS011;3081;50.584;7.032;2022-11-15T15:31:52;19.27;;;8.90;;
6101;SDS011;3081;50.584;7.032;2022-11-15T15:34:19;19.17;;;9.17;;
6101;SDS011;3081;50.584;7.032;2022-11-15T15:36:46;15.33;;;6.47;;
6101;SDS011;3081;50.584;7.032;2022-11-15T15:39:13;18.10;;;8.43;;
6101;SDS011;3081;50.584;7.032;2022-11-15T15:41:40;12.50;;;4.47;;
6101;SDS011;3081;50.584;7.032;2022-11-15T15:44:07;10.90;;;4.30;;
6101;SDS011;3081;50.584;7.032;2022-11-15T15:46:35;12.00;;;4.80;;
6101;SDS011;3081;50.584;7.032;2022-11-15T15:49:02;10.50;;;4.00;;
6101;SDS011;3081;50.584;7.032;2022-11-15T15:51:29;9.80;;;3.70;;
6101;SDS011;3081;50.584;7.032;2022-11-15T15:53:56;10.73;;;4.13;;
6101;SDS011;3081;50.584;7.032;2022-11-15T15:56:23;9.73;;;3.53;;
6101;SDS011;3081;50.584;7.032;2022-11-15T15:58:50;9.97;;;3.30;;
6101;SDS011;3081;50.584;7.032;2022-11-15T16:01:18;12.00;;;4.20;;
6101;SDS011;3081;50.584;7.032;2022-11-15T16:03:46;10.40;;;3.67;;
6101;SDS011;3081;50.584;7.032;2022-11-15T16:09:09;8.70;;;3.00;;
6101;SDS011;3081;50.584;7.032;2022-11-15T16:11:39;9.83;;;3.67;;
6101;SDS011;3081;50.584;7.032;2022-11-15T16:14:06;9.93;;;3.80;;
6101;SDS011;3081;50.584;7.032;2022-11-15T16:16:34;15.60;;;7.40;;